<?xml version="1.0" encoding="UTF-8" standalone="no" ?>
<gpx xmlns="http://www.topografix.com/GPX/1/1" xmlns:xsi="http://www.w3.org/2001/XMLSchema-instance" xsi:schemaLocation="http://www.topografix.com/GPX/1/1 http://www.topografix.com/GPX/1/1/gpx.xsd" version="1.1" creator="VisuGPX - https://www.visugpx.com">
  <metadata>
    <name>Tour de Bonvouloir</name>
    <desc><![CDATA[Orne]]></desc>
  </metadata>
  <trk>
    <name><![CDATA[10861109-7 - Tour de Bonvouloir]]></name>
    <extensions>
      <line xmlns="http://www.topografix.com/GPX/gpx_style/0/2">
        <color>0000FF</color>
        <width>4</width>
      </line>
    </extensions>
    <trkseg>
      <trkpt lat="48.58784" lon="-0.48998">
        <ele>266</ele>
        <time>2021-08-11T14:56:31Z</time>
      </trkpt>
      <trkpt lat="48.58784" lon="-0.4899">
        <ele>265.9</ele>
        <time>2021-08-11T14:56:34Z</time>
      </trkpt>
      <trkpt lat="48.58783" lon="-0.48974">
        <ele>265.7</ele>
        <time>2021-08-11T14:56:39Z</time>
      </trkpt>
      <trkpt lat="48.58797" lon="-0.48972">
        <ele>266.5</ele>
        <time>2021-08-11T14:56:46Z</time>
      </trkpt>
      <trkpt lat="48.58809" lon="-0.4897">
        <ele>267.2</ele>
        <time>2021-08-11T14:56:52Z</time>
      </trkpt>
      <trkpt lat="48.58813" lon="-0.48975">
        <ele>267.5</ele>
        <time>2021-08-11T14:56:55Z</time>
      </trkpt>
      <trkpt lat="48.58816" lon="-0.48984">
        <ele>267.8</ele>
        <time>2021-08-11T14:56:58Z</time>
      </trkpt>
      <trkpt lat="48.58817" lon="-0.48992">
        <ele>267.9</ele>
        <time>2021-08-11T14:57:01Z</time>
      </trkpt>
      <trkpt lat="48.58819" lon="-0.49009">
        <ele>267.9</ele>
        <time>2021-08-11T14:57:06Z</time>
      </trkpt>
      <trkpt lat="48.58827" lon="-0.49012">
        <ele>268.2</ele>
        <time>2021-08-11T14:57:11Z</time>
      </trkpt>
      <trkpt lat="48.58928" lon="-0.49045">
        <ele>268.8</ele>
        <time>2021-08-11T14:58:02Z</time>
      </trkpt>
      <trkpt lat="48.58937" lon="-0.49048">
        <ele>268.6</ele>
        <time>2021-08-11T14:58:07Z</time>
      </trkpt>
      <trkpt lat="48.58996" lon="-0.49069">
        <ele>267.4</ele>
        <time>2021-08-11T14:58:37Z</time>
      </trkpt>
      <trkpt lat="48.59005" lon="-0.49073">
        <ele>267.1</ele>
        <time>2021-08-11T14:58:42Z</time>
      </trkpt>
      <trkpt lat="48.59055" lon="-0.49089">
        <ele>265.1</ele>
        <time>2021-08-11T14:59:07Z</time>
      </trkpt>
      <trkpt lat="48.59065" lon="-0.49091">
        <ele>264.8</ele>
        <time>2021-08-11T14:59:12Z</time>
      </trkpt>
      <trkpt lat="48.5907" lon="-0.49092">
        <ele>264.6</ele>
        <time>2021-08-11T14:59:15Z</time>
      </trkpt>
      <trkpt lat="48.59082" lon="-0.49092">
        <ele>264.2</ele>
        <time>2021-08-11T14:59:21Z</time>
      </trkpt>
      <trkpt lat="48.59122" lon="-0.49092">
        <ele>261.2</ele>
        <time>2021-08-11T14:59:41Z</time>
      </trkpt>
      <trkpt lat="48.59131" lon="-0.49092">
        <ele>260.6</ele>
        <time>2021-08-11T14:59:46Z</time>
      </trkpt>
      <trkpt lat="48.59192" lon="-0.49089">
        <ele>256.7</ele>
        <time>2021-08-11T15:00:16Z</time>
      </trkpt>
      <trkpt lat="48.59201" lon="-0.49089">
        <ele>256.3</ele>
        <time>2021-08-11T15:00:21Z</time>
      </trkpt>
      <trkpt lat="48.59242" lon="-0.49082">
        <ele>254.4</ele>
        <time>2021-08-11T15:00:41Z</time>
      </trkpt>
      <trkpt lat="48.59252" lon="-0.4908">
        <ele>254</ele>
        <time>2021-08-11T15:00:46Z</time>
      </trkpt>
      <trkpt lat="48.59361" lon="-0.49073">
        <ele>251.7</ele>
        <time>2021-08-11T15:01:41Z</time>
      </trkpt>
      <trkpt lat="48.5937" lon="-0.49072">
        <ele>251.9</ele>
        <time>2021-08-11T15:01:45Z</time>
      </trkpt>
      <trkpt lat="48.59436" lon="-0.4906">
        <ele>255.1</ele>
        <time>2021-08-11T15:02:19Z</time>
      </trkpt>
      <trkpt lat="48.59445" lon="-0.49058">
        <ele>256</ele>
        <time>2021-08-11T15:02:23Z</time>
      </trkpt>
      <trkpt lat="48.59471" lon="-0.49056">
        <ele>258.4</ele>
        <time>2021-08-11T15:02:36Z</time>
      </trkpt>
      <trkpt lat="48.59388" lon="-0.48904">
        <ele>259.3</ele>
        <time>2021-08-11T15:03:41Z</time>
      </trkpt>
      <trkpt lat="48.59414" lon="-0.48876">
        <ele>263.2</ele>
        <time>2021-08-11T15:03:57Z</time>
      </trkpt>
      <trkpt lat="48.59555" lon="-0.48729">
        <ele>268.6</ele>
        <time>2021-08-11T15:05:23Z</time>
      </trkpt>
      <trkpt lat="48.5958" lon="-0.48704">
        <ele>267</ele>
        <time>2021-08-11T15:05:38Z</time>
      </trkpt>
      <trkpt lat="48.59615" lon="-0.48669">
        <ele>262.7</ele>
        <time>2021-08-11T15:05:59Z</time>
      </trkpt>
      <trkpt lat="48.59623" lon="-0.48661">
        <ele>261</ele>
        <time>2021-08-11T15:06:04Z</time>
      </trkpt>
      <trkpt lat="48.59722" lon="-0.48628">
        <ele>253</ele>
        <time>2021-08-11T15:06:55Z</time>
      </trkpt>
      <trkpt lat="48.59731" lon="-0.48625">
        <ele>252.9</ele>
        <time>2021-08-11T15:06:59Z</time>
      </trkpt>
      <trkpt lat="48.59793" lon="-0.48575">
        <ele>251.9</ele>
        <time>2021-08-11T15:07:34Z</time>
      </trkpt>
      <trkpt lat="48.59801" lon="-0.48569">
        <ele>251.6</ele>
        <time>2021-08-11T15:07:39Z</time>
      </trkpt>
      <trkpt lat="48.59875" lon="-0.48522">
        <ele>249.7</ele>
        <time>2021-08-11T15:08:19Z</time>
      </trkpt>
      <trkpt lat="48.59884" lon="-0.48516">
        <ele>249.6</ele>
        <time>2021-08-11T15:08:24Z</time>
      </trkpt>
      <trkpt lat="48.59906" lon="-0.48548">
        <ele>250.1</ele>
        <time>2021-08-11T15:08:39Z</time>
      </trkpt>
      <trkpt lat="48.59916" lon="-0.48562">
        <ele>250</ele>
        <time>2021-08-11T15:08:46Z</time>
      </trkpt>
      <trkpt lat="48.59969" lon="-0.48601">
        <ele>244.4</ele>
        <time>2021-08-11T15:09:16Z</time>
      </trkpt>
      <trkpt lat="48.59977" lon="-0.48608">
        <ele>243.5</ele>
        <time>2021-08-11T15:09:20Z</time>
      </trkpt>
      <trkpt lat="48.59988" lon="-0.48642">
        <ele>241.5</ele>
        <time>2021-08-11T15:09:33Z</time>
      </trkpt>
      <trkpt lat="48.59982" lon="-0.48659">
        <ele>241.5</ele>
        <time>2021-08-11T15:09:39Z</time>
      </trkpt>
      <trkpt lat="48.59953" lon="-0.48699">
        <ele>243.7</ele>
        <time>2021-08-11T15:09:59Z</time>
      </trkpt>
      <trkpt lat="48.59946" lon="-0.4871">
        <ele>244.3</ele>
        <time>2021-08-11T15:10:04Z</time>
      </trkpt>
      <trkpt lat="48.59953" lon="-0.48726">
        <ele>244</ele>
        <time>2021-08-11T15:10:10Z</time>
      </trkpt>
      <trkpt lat="48.59961" lon="-0.48735">
        <ele>243.7</ele>
        <time>2021-08-11T15:10:15Z</time>
      </trkpt>
      <trkpt lat="48.59969" lon="-0.48743">
        <ele>243.4</ele>
        <time>2021-08-11T15:10:20Z</time>
      </trkpt>
      <trkpt lat="48.60013" lon="-0.48771">
        <ele>241.2</ele>
        <time>2021-08-11T15:10:44Z</time>
      </trkpt>
      <trkpt lat="48.60021" lon="-0.48777">
        <ele>240.4</ele>
        <time>2021-08-11T15:10:48Z</time>
      </trkpt>
      <trkpt lat="48.60038" lon="-0.48814">
        <ele>239.4</ele>
        <time>2021-08-11T15:11:03Z</time>
      </trkpt>
      <trkpt lat="48.60044" lon="-0.48827">
        <ele>239</ele>
        <time>2021-08-11T15:11:08Z</time>
      </trkpt>
      <trkpt lat="48.60057" lon="-0.48885">
        <ele>238.1</ele>
        <time>2021-08-11T15:11:29Z</time>
      </trkpt>
      <trkpt lat="48.6006" lon="-0.48898">
        <ele>237.9</ele>
        <time>2021-08-11T15:11:33Z</time>
      </trkpt>
      <trkpt lat="48.60068" lon="-0.48966">
        <ele>238.8</ele>
        <time>2021-08-11T15:11:56Z</time>
      </trkpt>
      <trkpt lat="48.60069" lon="-0.4898">
        <ele>239.2</ele>
        <time>2021-08-11T15:12:01Z</time>
      </trkpt>
      <trkpt lat="48.60068" lon="-0.49009">
        <ele>240.5</ele>
        <time>2021-08-11T15:12:10Z</time>
      </trkpt>
      <trkpt lat="48.60067" lon="-0.49024">
        <ele>241.5</ele>
        <time>2021-08-11T15:12:15Z</time>
      </trkpt>
      <trkpt lat="48.60083" lon="-0.4904">
        <ele>240.4</ele>
        <time>2021-08-11T15:12:25Z</time>
      </trkpt>
      <trkpt lat="48.60091" lon="-0.49048">
        <ele>239.7</ele>
        <time>2021-08-11T15:12:30Z</time>
      </trkpt>
      <trkpt lat="48.601" lon="-0.49068">
        <ele>239.3</ele>
        <time>2021-08-11T15:12:38Z</time>
      </trkpt>
      <trkpt lat="48.60105" lon="-0.49082">
        <ele>239</ele>
        <time>2021-08-11T15:12:43Z</time>
      </trkpt>
      <trkpt lat="48.60118" lon="-0.49136">
        <ele>237.9</ele>
        <time>2021-08-11T15:13:02Z</time>
      </trkpt>
      <trkpt lat="48.60122" lon="-0.4915">
        <ele>237.3</ele>
        <time>2021-08-11T15:13:07Z</time>
      </trkpt>
      <trkpt lat="48.60129" lon="-0.49205">
        <ele>239.3</ele>
        <time>2021-08-11T15:13:26Z</time>
      </trkpt>
      <trkpt lat="48.60131" lon="-0.49219">
        <ele>240.2</ele>
        <time>2021-08-11T15:13:30Z</time>
      </trkpt>
      <trkpt lat="48.60133" lon="-0.49268">
        <ele>242.6</ele>
        <time>2021-08-11T15:13:47Z</time>
      </trkpt>
      <trkpt lat="48.60133" lon="-0.49282">
        <ele>242.6</ele>
        <time>2021-08-11T15:13:51Z</time>
      </trkpt>
      <trkpt lat="48.6014" lon="-0.49303">
        <ele>241.9</ele>
        <time>2021-08-11T15:13:59Z</time>
      </trkpt>
      <trkpt lat="48.60144" lon="-0.49316">
        <ele>241.6</ele>
        <time>2021-08-11T15:14:04Z</time>
      </trkpt>
      <trkpt lat="48.60153" lon="-0.49325">
        <ele>240.9</ele>
        <time>2021-08-11T15:14:09Z</time>
      </trkpt>
      <trkpt lat="48.60159" lon="-0.49342">
        <ele>240.2</ele>
        <time>2021-08-11T15:14:16Z</time>
      </trkpt>
      <trkpt lat="48.60159" lon="-0.49357">
        <ele>239.7</ele>
        <time>2021-08-11T15:14:21Z</time>
      </trkpt>
      <trkpt lat="48.60158" lon="-0.49371">
        <ele>239.2</ele>
        <time>2021-08-11T15:14:25Z</time>
      </trkpt>
      <trkpt lat="48.6015" lon="-0.49374">
        <ele>239.6</ele>
        <time>2021-08-11T15:14:29Z</time>
      </trkpt>
      <trkpt lat="48.60145" lon="-0.49366">
        <ele>240.3</ele>
        <time>2021-08-11T15:14:33Z</time>
      </trkpt>
      <trkpt lat="48.60139" lon="-0.49372">
        <ele>240.4</ele>
        <time>2021-08-11T15:14:37Z</time>
      </trkpt>
      <trkpt lat="48.60134" lon="-0.49384">
        <ele>240.3</ele>
        <time>2021-08-11T15:14:41Z</time>
      </trkpt>
      <trkpt lat="48.6013" lon="-0.49397">
        <ele>240</ele>
        <time>2021-08-11T15:14:46Z</time>
      </trkpt>
      <trkpt lat="48.60159" lon="-0.49416">
        <ele>237.5</ele>
        <time>2021-08-11T15:15:02Z</time>
      </trkpt>
      <trkpt lat="48.60211" lon="-0.49456">
        <ele>237.6</ele>
        <time>2021-08-11T15:15:31Z</time>
      </trkpt>
      <trkpt lat="48.60219" lon="-0.49462">
        <ele>237.9</ele>
        <time>2021-08-11T15:15:36Z</time>
      </trkpt>
      <trkpt lat="48.60232" lon="-0.49474">
        <ele>238.7</ele>
        <time>2021-08-11T15:15:43Z</time>
      </trkpt>
      <trkpt lat="48.60241" lon="-0.49481">
        <ele>239.3</ele>
        <time>2021-08-11T15:15:48Z</time>
      </trkpt>
      <trkpt lat="48.60246" lon="-0.49482">
        <ele>239.4</ele>
        <time>2021-08-11T15:15:51Z</time>
      </trkpt>
      <trkpt lat="48.60255" lon="-0.49484">
        <ele>239.9</ele>
        <time>2021-08-11T15:15:55Z</time>
      </trkpt>
      <trkpt lat="48.60261" lon="-0.49468">
        <ele>238.9</ele>
        <time>2021-08-11T15:16:01Z</time>
      </trkpt>
      <trkpt lat="48.60267" lon="-0.49453">
        <ele>238</ele>
        <time>2021-08-11T15:16:07Z</time>
      </trkpt>
      <trkpt lat="48.60276" lon="-0.49439">
        <ele>237.4</ele>
        <time>2021-08-11T15:16:14Z</time>
      </trkpt>
      <trkpt lat="48.60295" lon="-0.49415">
        <ele>236.7</ele>
        <time>2021-08-11T15:16:26Z</time>
      </trkpt>
      <trkpt lat="48.60304" lon="-0.49405">
        <ele>237</ele>
        <time>2021-08-11T15:16:32Z</time>
      </trkpt>
      <trkpt lat="48.60311" lon="-0.49391">
        <ele>237</ele>
        <time>2021-08-11T15:16:37Z</time>
      </trkpt>
      <trkpt lat="48.60313" lon="-0.49375">
        <ele>236.6</ele>
        <time>2021-08-11T15:16:43Z</time>
      </trkpt>
      <trkpt lat="48.60313" lon="-0.49357">
        <ele>236.2</ele>
        <time>2021-08-11T15:16:49Z</time>
      </trkpt>
      <trkpt lat="48.60314" lon="-0.49332">
        <ele>235.5</ele>
        <time>2021-08-11T15:16:57Z</time>
      </trkpt>
      <trkpt lat="48.60314" lon="-0.49305">
        <ele>235.3</ele>
        <time>2021-08-11T15:17:06Z</time>
      </trkpt>
      <trkpt lat="48.60311" lon="-0.49291">
        <ele>235.1</ele>
        <time>2021-08-11T15:17:11Z</time>
      </trkpt>
      <trkpt lat="48.60296" lon="-0.49253">
        <ele>234.6</ele>
        <time>2021-08-11T15:17:26Z</time>
      </trkpt>
      <trkpt lat="48.60291" lon="-0.49238">
        <ele>234.2</ele>
        <time>2021-08-11T15:17:31Z</time>
      </trkpt>
      <trkpt lat="48.6029" lon="-0.49231">
        <ele>234</ele>
        <time>2021-08-11T15:17:33Z</time>
      </trkpt>
      <trkpt lat="48.60288" lon="-0.49218">
        <ele>233.7</ele>
        <time>2021-08-11T15:17:38Z</time>
      </trkpt>
      <trkpt lat="48.60279" lon="-0.49177">
        <ele>232.3</ele>
        <time>2021-08-11T15:17:52Z</time>
      </trkpt>
      <trkpt lat="48.60275" lon="-0.49158">
        <ele>232.2</ele>
        <time>2021-08-11T15:17:59Z</time>
      </trkpt>
      <trkpt lat="48.60275" lon="-0.4915">
        <ele>232.5</ele>
        <time>2021-08-11T15:18:01Z</time>
      </trkpt>
      <trkpt lat="48.60275" lon="-0.49136">
        <ele>233</ele>
        <time>2021-08-11T15:18:06Z</time>
      </trkpt>
      <trkpt lat="48.60277" lon="-0.49121">
        <ele>233.6</ele>
        <time>2021-08-11T15:18:11Z</time>
      </trkpt>
      <trkpt lat="48.60279" lon="-0.49106">
        <ele>234.2</ele>
        <time>2021-08-11T15:18:16Z</time>
      </trkpt>
      <trkpt lat="48.60288" lon="-0.49069">
        <ele>235.3</ele>
        <time>2021-08-11T15:18:29Z</time>
      </trkpt>
      <trkpt lat="48.60292" lon="-0.49054">
        <ele>235.3</ele>
        <time>2021-08-11T15:18:35Z</time>
      </trkpt>
      <trkpt lat="48.60303" lon="-0.49024">
        <ele>235.5</ele>
        <time>2021-08-11T15:18:46Z</time>
      </trkpt>
      <trkpt lat="48.60306" lon="-0.49009">
        <ele>235.4</ele>
        <time>2021-08-11T15:18:51Z</time>
      </trkpt>
      <trkpt lat="48.60313" lon="-0.48998">
        <ele>235.5</ele>
        <time>2021-08-11T15:18:56Z</time>
      </trkpt>
      <trkpt lat="48.60319" lon="-0.48987">
        <ele>235.5</ele>
        <time>2021-08-11T15:19:01Z</time>
      </trkpt>
      <trkpt lat="48.60339" lon="-0.4896">
        <ele>236.1</ele>
        <time>2021-08-11T15:19:14Z</time>
      </trkpt>
      <trkpt lat="48.60349" lon="-0.48949">
        <ele>237</ele>
        <time>2021-08-11T15:19:20Z</time>
      </trkpt>
      <trkpt lat="48.60372" lon="-0.48913">
        <ele>239.7</ele>
        <time>2021-08-11T15:19:37Z</time>
      </trkpt>
      <trkpt lat="48.60379" lon="-0.48902">
        <ele>240.8</ele>
        <time>2021-08-11T15:19:42Z</time>
      </trkpt>
      <trkpt lat="48.60338" lon="-0.48818">
        <ele>238.9</ele>
        <time>2021-08-11T15:20:17Z</time>
      </trkpt>
      <trkpt lat="48.60333" lon="-0.48806">
        <ele>239</ele>
        <time>2021-08-11T15:20:21Z</time>
      </trkpt>
      <trkpt lat="48.60317" lon="-0.4877">
        <ele>239.3</ele>
        <time>2021-08-11T15:20:36Z</time>
      </trkpt>
      <trkpt lat="48.60311" lon="-0.48759">
        <ele>239.4</ele>
        <time>2021-08-11T15:20:40Z</time>
      </trkpt>
      <trkpt lat="48.60259" lon="-0.48612">
        <ele>241.8</ele>
        <time>2021-08-11T15:21:36Z</time>
      </trkpt>
      <trkpt lat="48.60253" lon="-0.48596">
        <ele>241.9</ele>
        <time>2021-08-11T15:21:42Z</time>
      </trkpt>
      <trkpt lat="48.60231" lon="-0.4851">
        <ele>243.7</ele>
        <time>2021-08-11T15:22:12Z</time>
      </trkpt>
      <trkpt lat="48.60228" lon="-0.48497">
        <ele>244.1</ele>
        <time>2021-08-11T15:22:17Z</time>
      </trkpt>
      <trkpt lat="48.60206" lon="-0.48395">
        <ele>245.8</ele>
        <time>2021-08-11T15:22:52Z</time>
      </trkpt>
      <trkpt lat="48.60203" lon="-0.48381">
        <ele>245.8</ele>
        <time>2021-08-11T15:22:57Z</time>
      </trkpt>
      <trkpt lat="48.60201" lon="-0.4832">
        <ele>247.2</ele>
        <time>2021-08-11T15:23:17Z</time>
      </trkpt>
      <trkpt lat="48.60201" lon="-0.48306">
        <ele>247.7</ele>
        <time>2021-08-11T15:23:22Z</time>
      </trkpt>
      <trkpt lat="48.60209" lon="-0.48272">
        <ele>249.8</ele>
        <time>2021-08-11T15:23:34Z</time>
      </trkpt>
      <trkpt lat="48.60212" lon="-0.48259">
        <ele>250.5</ele>
        <time>2021-08-11T15:23:38Z</time>
      </trkpt>
      <trkpt lat="48.60222" lon="-0.48234">
        <ele>251.8</ele>
        <time>2021-08-11T15:23:48Z</time>
      </trkpt>
      <trkpt lat="48.60228" lon="-0.48222">
        <ele>252.3</ele>
        <time>2021-08-11T15:23:53Z</time>
      </trkpt>
      <trkpt lat="48.60219" lon="-0.482">
        <ele>251.8</ele>
        <time>2021-08-11T15:24:02Z</time>
      </trkpt>
      <trkpt lat="48.60215" lon="-0.48188">
        <ele>251.7</ele>
        <time>2021-08-11T15:24:06Z</time>
      </trkpt>
      <trkpt lat="48.60205" lon="-0.48156">
        <ele>251.4</ele>
        <time>2021-08-11T15:24:18Z</time>
      </trkpt>
      <trkpt lat="48.602" lon="-0.48143">
        <ele>251.2</ele>
        <time>2021-08-11T15:24:23Z</time>
      </trkpt>
      <trkpt lat="48.6006" lon="-0.48147">
        <ele>249.2</ele>
        <time>2021-08-11T15:25:33Z</time>
      </trkpt>
      <trkpt lat="48.60049" lon="-0.48147">
        <ele>249.1</ele>
        <time>2021-08-11T15:25:38Z</time>
      </trkpt>
      <trkpt lat="48.60048" lon="-0.48097">
        <ele>247.9</ele>
        <time>2021-08-11T15:25:55Z</time>
      </trkpt>
      <trkpt lat="48.60048" lon="-0.48081">
        <ele>247.6</ele>
        <time>2021-08-11T15:26:00Z</time>
      </trkpt>
      <trkpt lat="48.60075" lon="-0.47972">
        <ele>250</ele>
        <time>2021-08-11T15:26:39Z</time>
      </trkpt>
      <trkpt lat="48.60078" lon="-0.47959">
        <ele>250.6</ele>
        <time>2021-08-11T15:26:43Z</time>
      </trkpt>
      <trkpt lat="48.60051" lon="-0.47854">
        <ele>250.2</ele>
        <time>2021-08-11T15:27:21Z</time>
      </trkpt>
      <trkpt lat="48.6005" lon="-0.47837">
        <ele>250.3</ele>
        <time>2021-08-11T15:27:26Z</time>
      </trkpt>
      <trkpt lat="48.60023" lon="-0.47786">
        <ele>248.9</ele>
        <time>2021-08-11T15:27:48Z</time>
      </trkpt>
      <trkpt lat="48.60017" lon="-0.47775">
        <ele>248.7</ele>
        <time>2021-08-11T15:27:53Z</time>
      </trkpt>
      <trkpt lat="48.59959" lon="-0.47725">
        <ele>250.9</ele>
        <time>2021-08-11T15:28:26Z</time>
      </trkpt>
      <trkpt lat="48.59951" lon="-0.47718">
        <ele>251.7</ele>
        <time>2021-08-11T15:28:31Z</time>
      </trkpt>
      <trkpt lat="48.59835" lon="-0.47521">
        <ele>258.3</ele>
        <time>2021-08-11T15:29:58Z</time>
      </trkpt>
      <trkpt lat="48.59829" lon="-0.4751">
        <ele>258.4</ele>
        <time>2021-08-11T15:30:03Z</time>
      </trkpt>
      <trkpt lat="48.59787" lon="-0.47445">
        <ele>257</ele>
        <time>2021-08-11T15:30:33Z</time>
      </trkpt>
      <trkpt lat="48.5978" lon="-0.47435">
        <ele>257</ele>
        <time>2021-08-11T15:30:37Z</time>
      </trkpt>
      <trkpt lat="48.59777" lon="-0.47415">
        <ele>257.4</ele>
        <time>2021-08-11T15:30:44Z</time>
      </trkpt>
      <trkpt lat="48.59771" lon="-0.47405">
        <ele>257.6</ele>
        <time>2021-08-11T15:30:49Z</time>
      </trkpt>
      <trkpt lat="48.59767" lon="-0.47414">
        <ele>257.3</ele>
        <time>2021-08-11T15:30:52Z</time>
      </trkpt>
      <trkpt lat="48.59763" lon="-0.47426">
        <ele>256.9</ele>
        <time>2021-08-11T15:30:57Z</time>
      </trkpt>
      <trkpt lat="48.59753" lon="-0.4749">
        <ele>254.5</ele>
        <time>2021-08-11T15:31:19Z</time>
      </trkpt>
      <trkpt lat="48.59751" lon="-0.47504">
        <ele>253.9</ele>
        <time>2021-08-11T15:31:23Z</time>
      </trkpt>
      <trkpt lat="48.59719" lon="-0.4755">
        <ele>248.8</ele>
        <time>2021-08-11T15:31:45Z</time>
      </trkpt>
      <trkpt lat="48.59712" lon="-0.4756">
        <ele>247.6</ele>
        <time>2021-08-11T15:31:50Z</time>
      </trkpt>
      <trkpt lat="48.597" lon="-0.47586">
        <ele>245.2</ele>
        <time>2021-08-11T15:32:01Z</time>
      </trkpt>
      <trkpt lat="48.59694" lon="-0.47599">
        <ele>244.6</ele>
        <time>2021-08-11T15:32:06Z</time>
      </trkpt>
      <trkpt lat="48.59675" lon="-0.47628">
        <ele>242.7</ele>
        <time>2021-08-11T15:32:19Z</time>
      </trkpt>
      <trkpt lat="48.59669" lon="-0.47638">
        <ele>242.2</ele>
        <time>2021-08-11T15:32:24Z</time>
      </trkpt>
      <trkpt lat="48.59637" lon="-0.47671">
        <ele>241.7</ele>
        <time>2021-08-11T15:32:43Z</time>
      </trkpt>
      <trkpt lat="48.59629" lon="-0.47679">
        <ele>241.8</ele>
        <time>2021-08-11T15:32:48Z</time>
      </trkpt>
      <trkpt lat="48.59613" lon="-0.47693">
        <ele>241.9</ele>
        <time>2021-08-11T15:32:57Z</time>
      </trkpt>
      <trkpt lat="48.59605" lon="-0.477">
        <ele>242</ele>
        <time>2021-08-11T15:33:02Z</time>
      </trkpt>
      <trkpt lat="48.59599" lon="-0.47715">
        <ele>242.2</ele>
        <time>2021-08-11T15:33:08Z</time>
      </trkpt>
      <trkpt lat="48.59591" lon="-0.47723">
        <ele>242.4</ele>
        <time>2021-08-11T15:33:13Z</time>
      </trkpt>
      <trkpt lat="48.59583" lon="-0.4773">
        <ele>242.6</ele>
        <time>2021-08-11T15:33:17Z</time>
      </trkpt>
      <trkpt lat="48.59553" lon="-0.47745">
        <ele>246.5</ele>
        <time>2021-08-11T15:33:33Z</time>
      </trkpt>
      <trkpt lat="48.59544" lon="-0.4775">
        <ele>247.7</ele>
        <time>2021-08-11T15:33:38Z</time>
      </trkpt>
      <trkpt lat="48.59534" lon="-0.47757">
        <ele>249.7</ele>
        <time>2021-08-11T15:33:43Z</time>
      </trkpt>
      <trkpt lat="48.59524" lon="-0.47764">
        <ele>251.7</ele>
        <time>2021-08-11T15:33:49Z</time>
      </trkpt>
      <trkpt lat="48.59517" lon="-0.47777">
        <ele>254.1</ele>
        <time>2021-08-11T15:33:54Z</time>
      </trkpt>
      <trkpt lat="48.59515" lon="-0.47795">
        <ele>256.4</ele>
        <time>2021-08-11T15:34:00Z</time>
      </trkpt>
      <trkpt lat="48.59497" lon="-0.47809">
        <ele>260.3</ele>
        <time>2021-08-11T15:34:11Z</time>
      </trkpt>
      <trkpt lat="48.59488" lon="-0.47816">
        <ele>261.8</ele>
        <time>2021-08-11T15:34:16Z</time>
      </trkpt>
      <trkpt lat="48.59478" lon="-0.47817">
        <ele>262.6</ele>
        <time>2021-08-11T15:34:21Z</time>
      </trkpt>
      <trkpt lat="48.59468" lon="-0.47817">
        <ele>263.3</ele>
        <time>2021-08-11T15:34:26Z</time>
      </trkpt>
      <trkpt lat="48.59459" lon="-0.47822">
        <ele>264.4</ele>
        <time>2021-08-11T15:34:30Z</time>
      </trkpt>
      <trkpt lat="48.59454" lon="-0.47825">
        <ele>265</ele>
        <time>2021-08-11T15:34:33Z</time>
      </trkpt>
      <trkpt lat="48.59444" lon="-0.47832">
        <ele>266.3</ele>
        <time>2021-08-11T15:34:39Z</time>
      </trkpt>
      <trkpt lat="48.59422" lon="-0.47873">
        <ele>268.7</ele>
        <time>2021-08-11T15:34:56Z</time>
      </trkpt>
      <trkpt lat="48.59416" lon="-0.47885">
        <ele>269.2</ele>
        <time>2021-08-11T15:35:01Z</time>
      </trkpt>
      <trkpt lat="48.59412" lon="-0.479">
        <ele>269.7</ele>
        <time>2021-08-11T15:35:06Z</time>
      </trkpt>
      <trkpt lat="48.59384" lon="-0.4796">
        <ele>271.3</ele>
        <time>2021-08-11T15:35:31Z</time>
      </trkpt>
      <trkpt lat="48.59365" lon="-0.47975">
        <ele>271.9</ele>
        <time>2021-08-11T15:35:41Z</time>
      </trkpt>
      <trkpt lat="48.59356" lon="-0.47983">
        <ele>272.3</ele>
        <time>2021-08-11T15:35:47Z</time>
      </trkpt>
      <trkpt lat="48.59347" lon="-0.47988">
        <ele>272.5</ele>
        <time>2021-08-11T15:35:52Z</time>
      </trkpt>
      <trkpt lat="48.59338" lon="-0.47994">
        <ele>272.8</ele>
        <time>2021-08-11T15:35:56Z</time>
      </trkpt>
      <trkpt lat="48.59312" lon="-0.48008">
        <ele>274.3</ele>
        <time>2021-08-11T15:36:10Z</time>
      </trkpt>
      <trkpt lat="48.59302" lon="-0.48014">
        <ele>274.9</ele>
        <time>2021-08-11T15:36:16Z</time>
      </trkpt>
      <trkpt lat="48.59293" lon="-0.48021">
        <ele>275.5</ele>
        <time>2021-08-11T15:36:21Z</time>
      </trkpt>
      <trkpt lat="48.59284" lon="-0.48028">
        <ele>276.2</ele>
        <time>2021-08-11T15:36:26Z</time>
      </trkpt>
      <trkpt lat="48.59278" lon="-0.48039">
        <ele>276.6</ele>
        <time>2021-08-11T15:36:30Z</time>
      </trkpt>
      <trkpt lat="48.59272" lon="-0.4805">
        <ele>277.1</ele>
        <time>2021-08-11T15:36:35Z</time>
      </trkpt>
      <trkpt lat="48.59267" lon="-0.48052">
        <ele>277.5</ele>
        <time>2021-08-11T15:36:38Z</time>
      </trkpt>
      <trkpt lat="48.59257" lon="-0.48055">
        <ele>278.2</ele>
        <time>2021-08-11T15:36:43Z</time>
      </trkpt>
      <trkpt lat="48.59242" lon="-0.48057">
        <ele>278.9</ele>
        <time>2021-08-11T15:36:50Z</time>
      </trkpt>
      <trkpt lat="48.59231" lon="-0.48058">
        <ele>279.2</ele>
        <time>2021-08-11T15:36:56Z</time>
      </trkpt>
      <trkpt lat="48.59045" lon="-0.4774">
        <ele>278.7</ele>
        <time>2021-08-11T15:39:16Z</time>
      </trkpt>
      <trkpt lat="48.59039" lon="-0.4773">
        <ele>278.3</ele>
        <time>2021-08-11T15:39:21Z</time>
      </trkpt>
      <trkpt lat="48.59057" lon="-0.4764">
        <ele>279.6</ele>
        <time>2021-08-11T15:39:52Z</time>
      </trkpt>
      <trkpt lat="48.5906" lon="-0.47626">
        <ele>279.7</ele>
        <time>2021-08-11T15:39:57Z</time>
      </trkpt>
      <trkpt lat="48.59039" lon="-0.47233">
        <ele>279.9</ele>
        <time>2021-08-11T15:42:07Z</time>
      </trkpt>
      <trkpt lat="48.59039" lon="-0.47209">
        <ele>280.2</ele>
        <time>2021-08-11T15:42:15Z</time>
      </trkpt>
      <trkpt lat="48.58711" lon="-0.47242">
        <ele>262.8</ele>
        <time>2021-08-11T15:45:00Z</time>
      </trkpt>
      <trkpt lat="48.587" lon="-0.47244">
        <ele>263.1</ele>
        <time>2021-08-11T15:45:05Z</time>
      </trkpt>
      <trkpt lat="48.58703" lon="-0.47288">
        <ele>261.4</ele>
        <time>2021-08-11T15:45:20Z</time>
      </trkpt>
      <trkpt lat="48.58703" lon="-0.47303">
        <ele>260.9</ele>
        <time>2021-08-11T15:45:25Z</time>
      </trkpt>
      <trkpt lat="48.58544" lon="-0.4692">
        <ele>267.6</ele>
        <time>2021-08-11T15:47:55Z</time>
      </trkpt>
      <trkpt lat="48.58539" lon="-0.46908">
        <ele>267.3</ele>
        <time>2021-08-11T15:47:59Z</time>
      </trkpt>
      <trkpt lat="48.58088" lon="-0.45729">
        <ele>231.1</ele>
        <time>2021-08-11T15:55:30Z</time>
      </trkpt>
      <trkpt lat="48.57713" lon="-0.46403">
        <ele>259.1</ele>
        <time>2021-08-11T16:00:22Z</time>
      </trkpt>
      <trkpt lat="48.57706" lon="-0.46415">
        <ele>259.6</ele>
        <time>2021-08-11T16:00:27Z</time>
      </trkpt>
      <trkpt lat="48.57651" lon="-0.4652">
        <ele>259.3</ele>
        <time>2021-08-11T16:01:11Z</time>
      </trkpt>
      <trkpt lat="48.57645" lon="-0.46531">
        <ele>258.6</ele>
        <time>2021-08-11T16:01:16Z</time>
      </trkpt>
      <trkpt lat="48.57639" lon="-0.4655">
        <ele>257.6</ele>
        <time>2021-08-11T16:01:23Z</time>
      </trkpt>
      <trkpt lat="48.57636" lon="-0.46555">
        <ele>257.2</ele>
        <time>2021-08-11T16:01:25Z</time>
      </trkpt>
      <trkpt lat="48.57012" lon="-0.47653">
        <ele>249.4</ele>
        <time>2021-08-11T16:09:25Z</time>
      </trkpt>
      <trkpt lat="48.57007" lon="-0.47662">
        <ele>251</ele>
        <time>2021-08-11T16:09:29Z</time>
      </trkpt>
      <trkpt lat="48.57004" lon="-0.47686">
        <ele>253.1</ele>
        <time>2021-08-11T16:09:37Z</time>
      </trkpt>
      <trkpt lat="48.57003" lon="-0.47701">
        <ele>254.3</ele>
        <time>2021-08-11T16:09:42Z</time>
      </trkpt>
      <trkpt lat="48.57003" lon="-0.47733">
        <ele>256.2</ele>
        <time>2021-08-11T16:09:52Z</time>
      </trkpt>
      <trkpt lat="48.57003" lon="-0.47748">
        <ele>257.1</ele>
        <time>2021-08-11T16:09:57Z</time>
      </trkpt>
      <trkpt lat="48.56994" lon="-0.47775">
        <ele>257.4</ele>
        <time>2021-08-11T16:10:07Z</time>
      </trkpt>
      <trkpt lat="48.56989" lon="-0.47788">
        <ele>257.3</ele>
        <time>2021-08-11T16:10:12Z</time>
      </trkpt>
      <trkpt lat="48.56972" lon="-0.47799">
        <ele>258</ele>
        <time>2021-08-11T16:10:21Z</time>
      </trkpt>
      <trkpt lat="48.56964" lon="-0.47805">
        <ele>258.3</ele>
        <time>2021-08-11T16:10:26Z</time>
      </trkpt>
      <trkpt lat="48.56949" lon="-0.47804">
        <ele>259.3</ele>
        <time>2021-08-11T16:10:33Z</time>
      </trkpt>
      <trkpt lat="48.56938" lon="-0.47803">
        <ele>260</ele>
        <time>2021-08-11T16:10:39Z</time>
      </trkpt>
      <trkpt lat="48.56917" lon="-0.47829">
        <ele>261</ele>
        <time>2021-08-11T16:10:52Z</time>
      </trkpt>
      <trkpt lat="48.56717" lon="-0.48198">
        <ele>240.1</ele>
        <time>2021-08-11T16:13:30Z</time>
      </trkpt>
      <trkpt lat="48.56658" lon="-0.48295">
        <ele>236.1</ele>
        <time>2021-08-11T16:14:14Z</time>
      </trkpt>
      <trkpt lat="48.56553" lon="-0.48222">
        <ele>224.3</ele>
        <time>2021-08-11T16:15:12Z</time>
      </trkpt>
      <trkpt lat="48.56544" lon="-0.48216">
        <ele>224.1</ele>
        <time>2021-08-11T16:15:17Z</time>
      </trkpt>
      <trkpt lat="48.56528" lon="-0.47928">
        <ele>225.6</ele>
        <time>2021-08-11T16:16:53Z</time>
      </trkpt>
      <trkpt lat="48.56528" lon="-0.47915">
        <ele>226.1</ele>
        <time>2021-08-11T16:16:57Z</time>
      </trkpt>
      <trkpt lat="48.56526" lon="-0.47906">
        <ele>226.1</ele>
        <time>2021-08-11T16:17:00Z</time>
      </trkpt>
      <trkpt lat="48.56523" lon="-0.47889">
        <ele>226.3</ele>
        <time>2021-08-11T16:17:06Z</time>
      </trkpt>
      <trkpt lat="48.56512" lon="-0.47878">
        <ele>224.9</ele>
        <time>2021-08-11T16:17:12Z</time>
      </trkpt>
      <trkpt lat="48.56507" lon="-0.47864">
        <ele>224.4</ele>
        <time>2021-08-11T16:17:18Z</time>
      </trkpt>
      <trkpt lat="48.56501" lon="-0.4785">
        <ele>223.8</ele>
        <time>2021-08-11T16:17:23Z</time>
      </trkpt>
      <trkpt lat="48.56494" lon="-0.4784">
        <ele>222.9</ele>
        <time>2021-08-11T16:17:28Z</time>
      </trkpt>
      <trkpt lat="48.56487" lon="-0.47831">
        <ele>222</ele>
        <time>2021-08-11T16:17:33Z</time>
      </trkpt>
      <trkpt lat="48.56482" lon="-0.47827">
        <ele>221.2</ele>
        <time>2021-08-11T16:17:35Z</time>
      </trkpt>
      <trkpt lat="48.56474" lon="-0.4782">
        <ele>219.9</ele>
        <time>2021-08-11T16:17:40Z</time>
      </trkpt>
      <trkpt lat="48.56461" lon="-0.4782">
        <ele>218</ele>
        <time>2021-08-11T16:17:47Z</time>
      </trkpt>
      <trkpt lat="48.56456" lon="-0.47825">
        <ele>217.2</ele>
        <time>2021-08-11T16:17:50Z</time>
      </trkpt>
      <trkpt lat="48.56446" lon="-0.47834">
        <ele>215.6</ele>
        <time>2021-08-11T16:17:55Z</time>
      </trkpt>
      <trkpt lat="48.56389" lon="-0.47896">
        <ele>207.9</ele>
        <time>2021-08-11T16:18:31Z</time>
      </trkpt>
      <trkpt lat="48.56381" lon="-0.47905">
        <ele>207</ele>
        <time>2021-08-11T16:18:36Z</time>
      </trkpt>
      <trkpt lat="48.56344" lon="-0.47931">
        <ele>203.3</ele>
        <time>2021-08-11T16:18:56Z</time>
      </trkpt>
      <trkpt lat="48.56336" lon="-0.47937">
        <ele>202.7</ele>
        <time>2021-08-11T16:19:00Z</time>
      </trkpt>
      <trkpt lat="48.56221" lon="-0.47969">
        <ele>200.2</ele>
        <time>2021-08-11T16:19:59Z</time>
      </trkpt>
      <trkpt lat="48.56211" lon="-0.47971">
        <ele>200</ele>
        <time>2021-08-11T16:20:04Z</time>
      </trkpt>
      <trkpt lat="48.56121" lon="-0.48019">
        <ele>198.2</ele>
        <time>2021-08-11T16:20:52Z</time>
      </trkpt>
      <trkpt lat="48.56111" lon="-0.48024">
        <ele>197.9</ele>
        <time>2021-08-11T16:20:57Z</time>
      </trkpt>
      <trkpt lat="48.56083" lon="-0.48032">
        <ele>197.2</ele>
        <time>2021-08-11T16:21:11Z</time>
      </trkpt>
      <trkpt lat="48.5601" lon="-0.48029">
        <ele>193.5</ele>
        <time>2021-08-11T16:21:48Z</time>
      </trkpt>
      <trkpt lat="48.56001" lon="-0.48029">
        <ele>193</ele>
        <time>2021-08-11T16:21:52Z</time>
      </trkpt>
      <trkpt lat="48.55987" lon="-0.48024">
        <ele>193</ele>
        <time>2021-08-11T16:22:00Z</time>
      </trkpt>
      <trkpt lat="48.55978" lon="-0.48021">
        <ele>192.9</ele>
        <time>2021-08-11T16:22:04Z</time>
      </trkpt>
      <trkpt lat="48.55966" lon="-0.4801">
        <ele>193</ele>
        <time>2021-08-11T16:22:11Z</time>
      </trkpt>
      <trkpt lat="48.55959" lon="-0.48003">
        <ele>193</ele>
        <time>2021-08-11T16:22:15Z</time>
      </trkpt>
      <trkpt lat="48.55927" lon="-0.4795">
        <ele>193.4</ele>
        <time>2021-08-11T16:22:39Z</time>
      </trkpt>
      <trkpt lat="48.5592" lon="-0.4794">
        <ele>193.5</ele>
        <time>2021-08-11T16:22:44Z</time>
      </trkpt>
      <trkpt lat="48.55915" lon="-0.47937">
        <ele>193.5</ele>
        <time>2021-08-11T16:22:47Z</time>
      </trkpt>
      <trkpt lat="48.55906" lon="-0.47931">
        <ele>193.6</ele>
        <time>2021-08-11T16:22:52Z</time>
      </trkpt>
      <trkpt lat="48.55901" lon="-0.47931">
        <ele>193.5</ele>
        <time>2021-08-11T16:22:54Z</time>
      </trkpt>
      <trkpt lat="48.55892" lon="-0.47931">
        <ele>193.5</ele>
        <time>2021-08-11T16:22:59Z</time>
      </trkpt>
      <trkpt lat="48.55879" lon="-0.4794">
        <ele>193.2</ele>
        <time>2021-08-11T16:23:06Z</time>
      </trkpt>
      <trkpt lat="48.55871" lon="-0.47946">
        <ele>193.1</ele>
        <time>2021-08-11T16:23:10Z</time>
      </trkpt>
      <trkpt lat="48.55866" lon="-0.47948">
        <ele>193.1</ele>
        <time>2021-08-11T16:23:13Z</time>
      </trkpt>
      <trkpt lat="48.55856" lon="-0.47952">
        <ele>193</ele>
        <time>2021-08-11T16:23:18Z</time>
      </trkpt>
      <trkpt lat="48.55855" lon="-0.48059">
        <ele>191.7</ele>
        <time>2021-08-11T16:23:53Z</time>
      </trkpt>
      <trkpt lat="48.55834" lon="-0.48139">
        <ele>189.7</ele>
        <time>2021-08-11T16:24:22Z</time>
      </trkpt>
      <trkpt lat="48.55801" lon="-0.48224">
        <ele>189</ele>
        <time>2021-08-11T16:24:55Z</time>
      </trkpt>
      <trkpt lat="48.55781" lon="-0.48374">
        <ele>189.6</ele>
        <time>2021-08-11T16:25:45Z</time>
      </trkpt>
      <trkpt lat="48.55747" lon="-0.48473">
        <ele>188.9</ele>
        <time>2021-08-11T16:26:22Z</time>
      </trkpt>
      <trkpt lat="48.55736" lon="-0.48518">
        <ele>186.8</ele>
        <time>2021-08-11T16:26:38Z</time>
      </trkpt>
      <trkpt lat="48.5573" lon="-0.48604">
        <ele>183.7</ele>
        <time>2021-08-11T16:27:07Z</time>
      </trkpt>
      <trkpt lat="48.55674" lon="-0.48634">
        <ele>184.8</ele>
        <time>2021-08-11T16:27:36Z</time>
      </trkpt>
      <trkpt lat="48.55584" lon="-0.48642">
        <ele>184</ele>
        <time>2021-08-11T16:28:22Z</time>
      </trkpt>
      <trkpt lat="48.55519" lon="-0.4868">
        <ele>185.5</ele>
        <time>2021-08-11T16:28:56Z</time>
      </trkpt>
      <trkpt lat="48.55498" lon="-0.48715">
        <ele>186.1</ele>
        <time>2021-08-11T16:29:12Z</time>
      </trkpt>
      <trkpt lat="48.55474" lon="-0.48823">
        <ele>187.5</ele>
        <time>2021-08-11T16:29:50Z</time>
      </trkpt>
      <trkpt lat="48.55439" lon="-0.48922">
        <ele>189.1</ele>
        <time>2021-08-11T16:30:27Z</time>
      </trkpt>
      <trkpt lat="48.55435" lon="-0.49007">
        <ele>187.9</ele>
        <time>2021-08-11T16:30:55Z</time>
      </trkpt>
      <trkpt lat="48.55389" lon="-0.49162">
        <ele>185.1</ele>
        <time>2021-08-11T16:31:52Z</time>
      </trkpt>
      <trkpt lat="48.55374" lon="-0.49192">
        <ele>185.2</ele>
        <time>2021-08-11T16:32:04Z</time>
      </trkpt>
      <trkpt lat="48.55347" lon="-0.49264">
        <ele>184</ele>
        <time>2021-08-11T16:32:31Z</time>
      </trkpt>
      <trkpt lat="48.55335" lon="-0.49313">
        <ele>182.7</ele>
        <time>2021-08-11T16:32:49Z</time>
      </trkpt>
      <trkpt lat="48.55331" lon="-0.49327">
        <ele>182.4</ele>
        <time>2021-08-11T16:32:54Z</time>
      </trkpt>
      <trkpt lat="48.55331" lon="-0.4935">
        <ele>182.2</ele>
        <time>2021-08-11T16:33:01Z</time>
      </trkpt>
      <trkpt lat="48.55331" lon="-0.49366">
        <ele>182.1</ele>
        <time>2021-08-11T16:33:07Z</time>
      </trkpt>
      <trkpt lat="48.55336" lon="-0.49395">
        <ele>182.1</ele>
        <time>2021-08-11T16:33:17Z</time>
      </trkpt>
      <trkpt lat="48.5534" lon="-0.49413">
        <ele>182.3</ele>
        <time>2021-08-11T16:33:23Z</time>
      </trkpt>
      <trkpt lat="48.55349" lon="-0.49432">
        <ele>183.3</ele>
        <time>2021-08-11T16:33:31Z</time>
      </trkpt>
      <trkpt lat="48.55354" lon="-0.49443">
        <ele>183.9</ele>
        <time>2021-08-11T16:33:35Z</time>
      </trkpt>
      <trkpt lat="48.55427" lon="-0.49529">
        <ele>189.7</ele>
        <time>2021-08-11T16:34:21Z</time>
      </trkpt>
      <trkpt lat="48.55464" lon="-0.49505">
        <ele>190.4</ele>
        <time>2021-08-11T16:34:41Z</time>
      </trkpt>
      <trkpt lat="48.55473" lon="-0.49523">
        <ele>191.1</ele>
        <time>2021-08-11T16:34:49Z</time>
      </trkpt>
      <trkpt lat="48.55479" lon="-0.49535">
        <ele>191.4</ele>
        <time>2021-08-11T16:34:54Z</time>
      </trkpt>
      <trkpt lat="48.55493" lon="-0.49554">
        <ele>191.9</ele>
        <time>2021-08-11T16:35:03Z</time>
      </trkpt>
      <trkpt lat="48.555" lon="-0.49563">
        <ele>192</ele>
        <time>2021-08-11T16:35:08Z</time>
      </trkpt>
      <trkpt lat="48.55522" lon="-0.49591">
        <ele>192.4</ele>
        <time>2021-08-11T16:35:22Z</time>
      </trkpt>
      <trkpt lat="48.55529" lon="-0.496">
        <ele>192.7</ele>
        <time>2021-08-11T16:35:27Z</time>
      </trkpt>
      <trkpt lat="48.55526" lon="-0.49606">
        <ele>192.8</ele>
        <time>2021-08-11T16:35:29Z</time>
      </trkpt>
      <trkpt lat="48.55518" lon="-0.49618">
        <ele>193</ele>
        <time>2021-08-11T16:35:35Z</time>
      </trkpt>
      <trkpt lat="48.55542" lon="-0.49707">
        <ele>194.5</ele>
        <time>2021-08-11T16:36:07Z</time>
      </trkpt>
      <trkpt lat="48.55545" lon="-0.49721">
        <ele>194.6</ele>
        <time>2021-08-11T16:36:12Z</time>
      </trkpt>
      <trkpt lat="48.55563" lon="-0.49797">
        <ele>195.6</ele>
        <time>2021-08-11T16:36:39Z</time>
      </trkpt>
      <trkpt lat="48.55566" lon="-0.4981">
        <ele>195.9</ele>
        <time>2021-08-11T16:36:43Z</time>
      </trkpt>
      <trkpt lat="48.55577" lon="-0.49842">
        <ele>196.3</ele>
        <time>2021-08-11T16:36:55Z</time>
      </trkpt>
      <trkpt lat="48.55582" lon="-0.49855">
        <ele>196.3</ele>
        <time>2021-08-11T16:37:00Z</time>
      </trkpt>
      <trkpt lat="48.55601" lon="-0.49887">
        <ele>196</ele>
        <time>2021-08-11T16:37:14Z</time>
      </trkpt>
      <trkpt lat="48.55608" lon="-0.49898">
        <ele>195.9</ele>
        <time>2021-08-11T16:37:19Z</time>
      </trkpt>
      <trkpt lat="48.55625" lon="-0.49942">
        <ele>196.4</ele>
        <time>2021-08-11T16:37:36Z</time>
      </trkpt>
      <trkpt lat="48.5563" lon="-0.49955">
        <ele>196.7</ele>
        <time>2021-08-11T16:37:41Z</time>
      </trkpt>
      <trkpt lat="48.55651" lon="-0.49993">
        <ele>197.3</ele>
        <time>2021-08-11T16:37:58Z</time>
      </trkpt>
      <trkpt lat="48.55657" lon="-0.50004">
        <ele>197.5</ele>
        <time>2021-08-11T16:38:02Z</time>
      </trkpt>
      <trkpt lat="48.55671" lon="-0.50043">
        <ele>198.5</ele>
        <time>2021-08-11T16:38:17Z</time>
      </trkpt>
      <trkpt lat="48.55676" lon="-0.50056">
        <ele>198.8</ele>
        <time>2021-08-11T16:38:22Z</time>
      </trkpt>
      <trkpt lat="48.5569" lon="-0.50104">
        <ele>199.5</ele>
        <time>2021-08-11T16:38:39Z</time>
      </trkpt>
      <trkpt lat="48.55693" lon="-0.50118">
        <ele>199.5</ele>
        <time>2021-08-11T16:38:44Z</time>
      </trkpt>
      <trkpt lat="48.55704" lon="-0.50199">
        <ele>199.9</ele>
        <time>2021-08-11T16:39:12Z</time>
      </trkpt>
      <trkpt lat="48.55705" lon="-0.50212">
        <ele>200.1</ele>
        <time>2021-08-11T16:39:16Z</time>
      </trkpt>
      <trkpt lat="48.55731" lon="-0.50302">
        <ele>199.6</ele>
        <time>2021-08-11T16:39:48Z</time>
      </trkpt>
      <trkpt lat="48.5576" lon="-0.50371">
        <ele>197.7</ele>
        <time>2021-08-11T16:40:16Z</time>
      </trkpt>
      <trkpt lat="48.55772" lon="-0.50418">
        <ele>196.5</ele>
        <time>2021-08-11T16:40:32Z</time>
      </trkpt>
      <trkpt lat="48.55785" lon="-0.50478">
        <ele>196.6</ele>
        <time>2021-08-11T16:40:53Z</time>
      </trkpt>
      <trkpt lat="48.55788" lon="-0.50491">
        <ele>196.6</ele>
        <time>2021-08-11T16:40:58Z</time>
      </trkpt>
      <trkpt lat="48.55784" lon="-0.50501">
        <ele>196.8</ele>
        <time>2021-08-11T16:41:02Z</time>
      </trkpt>
      <trkpt lat="48.55783" lon="-0.50514">
        <ele>197.4</ele>
        <time>2021-08-11T16:41:06Z</time>
      </trkpt>
      <trkpt lat="48.55785" lon="-0.5073">
        <ele>204.2</ele>
        <time>2021-08-11T16:42:17Z</time>
      </trkpt>
      <trkpt lat="48.55781" lon="-0.50746">
        <ele>204.6</ele>
        <time>2021-08-11T16:42:23Z</time>
      </trkpt>
      <trkpt lat="48.55833" lon="-0.50741">
        <ele>205.6</ele>
        <time>2021-08-11T16:42:49Z</time>
      </trkpt>
      <trkpt lat="48.55843" lon="-0.5074">
        <ele>205.4</ele>
        <time>2021-08-11T16:42:54Z</time>
      </trkpt>
      <trkpt lat="48.55923" lon="-0.5074">
        <ele>203.9</ele>
        <time>2021-08-11T16:43:34Z</time>
      </trkpt>
      <trkpt lat="48.55932" lon="-0.5074">
        <ele>203.4</ele>
        <time>2021-08-11T16:43:39Z</time>
      </trkpt>
      <trkpt lat="48.56014" lon="-0.5073">
        <ele>198</ele>
        <time>2021-08-11T16:44:20Z</time>
      </trkpt>
      <trkpt lat="48.56031" lon="-0.50702">
        <ele>195.5</ele>
        <time>2021-08-11T16:44:32Z</time>
      </trkpt>
      <trkpt lat="48.56035" lon="-0.50638">
        <ele>192</ele>
        <time>2021-08-11T16:44:54Z</time>
      </trkpt>
      <trkpt lat="48.56018" lon="-0.50557">
        <ele>189.8</ele>
        <time>2021-08-11T16:45:22Z</time>
      </trkpt>
      <trkpt lat="48.56003" lon="-0.50513">
        <ele>190</ele>
        <time>2021-08-11T16:45:38Z</time>
      </trkpt>
      <trkpt lat="48.56033" lon="-0.50471">
        <ele>187.6</ele>
        <time>2021-08-11T16:45:59Z</time>
      </trkpt>
      <trkpt lat="48.56073" lon="-0.50427">
        <ele>185.4</ele>
        <time>2021-08-11T16:46:24Z</time>
      </trkpt>
      <trkpt lat="48.56083" lon="-0.50414">
        <ele>185</ele>
        <time>2021-08-11T16:46:30Z</time>
      </trkpt>
      <trkpt lat="48.56064" lon="-0.50372">
        <ele>185.9</ele>
        <time>2021-08-11T16:46:47Z</time>
      </trkpt>
      <trkpt lat="48.56058" lon="-0.5036">
        <ele>186</ele>
        <time>2021-08-11T16:46:52Z</time>
      </trkpt>
      <trkpt lat="48.56032" lon="-0.50271">
        <ele>185.5</ele>
        <time>2021-08-11T16:47:24Z</time>
      </trkpt>
      <trkpt lat="48.56029" lon="-0.50258">
        <ele>185.4</ele>
        <time>2021-08-11T16:47:29Z</time>
      </trkpt>
      <trkpt lat="48.56021" lon="-0.50219">
        <ele>185.3</ele>
        <time>2021-08-11T16:47:42Z</time>
      </trkpt>
      <trkpt lat="48.56018" lon="-0.50206">
        <ele>185.2</ele>
        <time>2021-08-11T16:47:47Z</time>
      </trkpt>
      <trkpt lat="48.56022" lon="-0.50147">
        <ele>185.2</ele>
        <time>2021-08-11T16:48:06Z</time>
      </trkpt>
      <trkpt lat="48.56023" lon="-0.50134">
        <ele>185.1</ele>
        <time>2021-08-11T16:48:11Z</time>
      </trkpt>
      <trkpt lat="48.56132" lon="-0.50067">
        <ele>187.5</ele>
        <time>2021-08-11T16:49:10Z</time>
      </trkpt>
      <trkpt lat="48.56141" lon="-0.50062">
        <ele>187.7</ele>
        <time>2021-08-11T16:49:14Z</time>
      </trkpt>
      <trkpt lat="48.56196" lon="-0.50035">
        <ele>189.4</ele>
        <time>2021-08-11T16:49:43Z</time>
      </trkpt>
      <trkpt lat="48.56205" lon="-0.50031">
        <ele>189.7</ele>
        <time>2021-08-11T16:49:48Z</time>
      </trkpt>
      <trkpt lat="48.56229" lon="-0.50023">
        <ele>190.4</ele>
        <time>2021-08-11T16:50:00Z</time>
      </trkpt>
      <trkpt lat="48.56272" lon="-0.50011">
        <ele>193.8</ele>
        <time>2021-08-11T16:50:22Z</time>
      </trkpt>
      <trkpt lat="48.56291" lon="-0.50009">
        <ele>196.2</ele>
        <time>2021-08-11T16:50:32Z</time>
      </trkpt>
      <trkpt lat="48.563" lon="-0.50008">
        <ele>197.4</ele>
        <time>2021-08-11T16:50:36Z</time>
      </trkpt>
      <trkpt lat="48.56322" lon="-0.5001">
        <ele>200.1</ele>
        <time>2021-08-11T16:50:47Z</time>
      </trkpt>
      <trkpt lat="48.56331" lon="-0.5001">
        <ele>201.2</ele>
        <time>2021-08-11T16:50:52Z</time>
      </trkpt>
      <trkpt lat="48.56341" lon="-0.50007">
        <ele>202.1</ele>
        <time>2021-08-11T16:50:57Z</time>
      </trkpt>
      <trkpt lat="48.56351" lon="-0.50003">
        <ele>202.9</ele>
        <time>2021-08-11T16:51:02Z</time>
      </trkpt>
      <trkpt lat="48.56355" lon="-0.49997">
        <ele>203.3</ele>
        <time>2021-08-11T16:51:05Z</time>
      </trkpt>
      <trkpt lat="48.56359" lon="-0.4999">
        <ele>203.7</ele>
        <time>2021-08-11T16:51:08Z</time>
      </trkpt>
      <trkpt lat="48.56365" lon="-0.49978">
        <ele>204.3</ele>
        <time>2021-08-11T16:51:13Z</time>
      </trkpt>
      <trkpt lat="48.56371" lon="-0.49966">
        <ele>204.9</ele>
        <time>2021-08-11T16:51:18Z</time>
      </trkpt>
      <trkpt lat="48.56385" lon="-0.49931">
        <ele>206.4</ele>
        <time>2021-08-11T16:51:32Z</time>
      </trkpt>
      <trkpt lat="48.56391" lon="-0.49918">
        <ele>207.1</ele>
        <time>2021-08-11T16:51:37Z</time>
      </trkpt>
      <trkpt lat="48.564" lon="-0.4991">
        <ele>207.8</ele>
        <time>2021-08-11T16:51:42Z</time>
      </trkpt>
      <trkpt lat="48.5641" lon="-0.49903">
        <ele>208.6</ele>
        <time>2021-08-11T16:51:48Z</time>
      </trkpt>
      <trkpt lat="48.56413" lon="-0.49896">
        <ele>209</ele>
        <time>2021-08-11T16:51:50Z</time>
      </trkpt>
      <trkpt lat="48.56417" lon="-0.49884">
        <ele>209.4</ele>
        <time>2021-08-11T16:51:55Z</time>
      </trkpt>
      <trkpt lat="48.56422" lon="-0.49879">
        <ele>209.4</ele>
        <time>2021-08-11T16:51:58Z</time>
      </trkpt>
      <trkpt lat="48.56431" lon="-0.4987">
        <ele>209.5</ele>
        <time>2021-08-11T16:52:03Z</time>
      </trkpt>
      <trkpt lat="48.56439" lon="-0.49901">
        <ele>209</ele>
        <time>2021-08-11T16:52:14Z</time>
      </trkpt>
      <trkpt lat="48.56443" lon="-0.49906">
        <ele>208.9</ele>
        <time>2021-08-11T16:52:17Z</time>
      </trkpt>
      <trkpt lat="48.56452" lon="-0.49915">
        <ele>208.6</ele>
        <time>2021-08-11T16:52:22Z</time>
      </trkpt>
      <trkpt lat="48.56456" lon="-0.49917">
        <ele>208.5</ele>
        <time>2021-08-11T16:52:24Z</time>
      </trkpt>
      <trkpt lat="48.56465" lon="-0.4992">
        <ele>208.3</ele>
        <time>2021-08-11T16:52:29Z</time>
      </trkpt>
      <trkpt lat="48.56467" lon="-0.49934">
        <ele>208</ele>
        <time>2021-08-11T16:52:34Z</time>
      </trkpt>
      <trkpt lat="48.5647" lon="-0.49949">
        <ele>207.6</ele>
        <time>2021-08-11T16:52:39Z</time>
      </trkpt>
      <trkpt lat="48.56473" lon="-0.49955">
        <ele>207.4</ele>
        <time>2021-08-11T16:52:41Z</time>
      </trkpt>
      <trkpt lat="48.56479" lon="-0.49968">
        <ele>207</ele>
        <time>2021-08-11T16:52:47Z</time>
      </trkpt>
      <trkpt lat="48.56499" lon="-0.4997">
        <ele>206.7</ele>
        <time>2021-08-11T16:52:57Z</time>
      </trkpt>
      <trkpt lat="48.56511" lon="-0.49964">
        <ele>206.6</ele>
        <time>2021-08-11T16:53:03Z</time>
      </trkpt>
      <trkpt lat="48.56516" lon="-0.49959">
        <ele>206.6</ele>
        <time>2021-08-11T16:53:06Z</time>
      </trkpt>
      <trkpt lat="48.56525" lon="-0.49951">
        <ele>206.6</ele>
        <time>2021-08-11T16:53:11Z</time>
      </trkpt>
      <trkpt lat="48.56533" lon="-0.4994">
        <ele>206.8</ele>
        <time>2021-08-11T16:53:17Z</time>
      </trkpt>
      <trkpt lat="48.56568" lon="-0.49934">
        <ele>206.4</ele>
        <time>2021-08-11T16:53:34Z</time>
      </trkpt>
      <trkpt lat="48.56574" lon="-0.49926">
        <ele>206.7</ele>
        <time>2021-08-11T16:53:38Z</time>
      </trkpt>
      <trkpt lat="48.56581" lon="-0.49891">
        <ele>207.9</ele>
        <time>2021-08-11T16:53:50Z</time>
      </trkpt>
      <trkpt lat="48.56583" lon="-0.49877">
        <ele>208.4</ele>
        <time>2021-08-11T16:53:55Z</time>
      </trkpt>
      <trkpt lat="48.56596" lon="-0.49862">
        <ele>209.9</ele>
        <time>2021-08-11T16:54:03Z</time>
      </trkpt>
      <trkpt lat="48.56604" lon="-0.49852">
        <ele>210.8</ele>
        <time>2021-08-11T16:54:08Z</time>
      </trkpt>
      <trkpt lat="48.5661" lon="-0.49852">
        <ele>211.2</ele>
        <time>2021-08-11T16:54:11Z</time>
      </trkpt>
      <trkpt lat="48.5662" lon="-0.49851">
        <ele>212</ele>
        <time>2021-08-11T16:54:16Z</time>
      </trkpt>
      <trkpt lat="48.56625" lon="-0.49829">
        <ele>213.1</ele>
        <time>2021-08-11T16:54:24Z</time>
      </trkpt>
      <trkpt lat="48.56629" lon="-0.49814">
        <ele>213.8</ele>
        <time>2021-08-11T16:54:29Z</time>
      </trkpt>
      <trkpt lat="48.5664" lon="-0.49804">
        <ele>215</ele>
        <time>2021-08-11T16:54:36Z</time>
      </trkpt>
      <trkpt lat="48.56645" lon="-0.49788">
        <ele>216.1</ele>
        <time>2021-08-11T16:54:42Z</time>
      </trkpt>
      <trkpt lat="48.56646" lon="-0.49729">
        <ele>217.9</ele>
        <time>2021-08-11T16:55:01Z</time>
      </trkpt>
      <trkpt lat="48.56642" lon="-0.497">
        <ele>218</ele>
        <time>2021-08-11T16:55:11Z</time>
      </trkpt>
      <trkpt lat="48.5664" lon="-0.49685">
        <ele>218.1</ele>
        <time>2021-08-11T16:55:16Z</time>
      </trkpt>
      <trkpt lat="48.5663" lon="-0.49683">
        <ele>217.1</ele>
        <time>2021-08-11T16:55:21Z</time>
      </trkpt>
      <trkpt lat="48.56619" lon="-0.4968">
        <ele>216.1</ele>
        <time>2021-08-11T16:55:27Z</time>
      </trkpt>
      <trkpt lat="48.56587" lon="-0.49666">
        <ele>213.4</ele>
        <time>2021-08-11T16:55:44Z</time>
      </trkpt>
      <trkpt lat="48.56578" lon="-0.49663">
        <ele>212.8</ele>
        <time>2021-08-11T16:55:48Z</time>
      </trkpt>
      <trkpt lat="48.56583" lon="-0.49656">
        <ele>213.1</ele>
        <time>2021-08-11T16:55:52Z</time>
      </trkpt>
      <trkpt lat="48.56582" lon="-0.49649">
        <ele>213.2</ele>
        <time>2021-08-11T16:55:54Z</time>
      </trkpt>
      <trkpt lat="48.5658" lon="-0.49635">
        <ele>213.2</ele>
        <time>2021-08-11T16:55:59Z</time>
      </trkpt>
      <trkpt lat="48.56554" lon="-0.49589">
        <ele>212.2</ele>
        <time>2021-08-11T16:56:19Z</time>
      </trkpt>
      <trkpt lat="48.56548" lon="-0.49578">
        <ele>212.1</ele>
        <time>2021-08-11T16:56:23Z</time>
      </trkpt>
      <trkpt lat="48.56541" lon="-0.49557">
        <ele>212.6</ele>
        <time>2021-08-11T16:56:31Z</time>
      </trkpt>
      <trkpt lat="48.56536" lon="-0.49542">
        <ele>212.8</ele>
        <time>2021-08-11T16:56:37Z</time>
      </trkpt>
      <trkpt lat="48.56529" lon="-0.49501">
        <ele>213.7</ele>
        <time>2021-08-11T16:56:51Z</time>
      </trkpt>
      <trkpt lat="48.56527" lon="-0.49487">
        <ele>213.7</ele>
        <time>2021-08-11T16:56:56Z</time>
      </trkpt>
      <trkpt lat="48.56524" lon="-0.49444">
        <ele>213.7</ele>
        <time>2021-08-11T16:57:10Z</time>
      </trkpt>
      <trkpt lat="48.56523" lon="-0.4943">
        <ele>213.7</ele>
        <time>2021-08-11T16:57:15Z</time>
      </trkpt>
      <trkpt lat="48.5652" lon="-0.49403">
        <ele>212.7</ele>
        <time>2021-08-11T16:57:24Z</time>
      </trkpt>
      <trkpt lat="48.56518" lon="-0.49389">
        <ele>211.7</ele>
        <time>2021-08-11T16:57:28Z</time>
      </trkpt>
      <trkpt lat="48.5651" lon="-0.49357">
        <ele>209.2</ele>
        <time>2021-08-11T16:57:40Z</time>
      </trkpt>
      <trkpt lat="48.56506" lon="-0.49344">
        <ele>208.1</ele>
        <time>2021-08-11T16:57:44Z</time>
      </trkpt>
      <trkpt lat="48.56551" lon="-0.49313">
        <ele>212.1</ele>
        <time>2021-08-11T16:58:09Z</time>
      </trkpt>
      <trkpt lat="48.56564" lon="-0.49307">
        <ele>213.5</ele>
        <time>2021-08-11T16:58:16Z</time>
      </trkpt>
      <trkpt lat="48.56718" lon="-0.49215">
        <ele>225.8</ele>
        <time>2021-08-11T16:59:39Z</time>
      </trkpt>
      <trkpt lat="48.56756" lon="-0.49183">
        <ele>229.4</ele>
        <time>2021-08-11T17:00:01Z</time>
      </trkpt>
      <trkpt lat="48.56774" lon="-0.49168">
        <ele>233</ele>
        <time>2021-08-11T17:00:11Z</time>
      </trkpt>
      <trkpt lat="48.5681" lon="-0.49135">
        <ele>240</ele>
        <time>2021-08-11T17:00:32Z</time>
      </trkpt>
      <trkpt lat="48.56819" lon="-0.49127">
        <ele>241.5</ele>
        <time>2021-08-11T17:00:37Z</time>
      </trkpt>
      <trkpt lat="48.5689" lon="-0.49052">
        <ele>256.5</ele>
        <time>2021-08-11T17:01:21Z</time>
      </trkpt>
      <trkpt lat="48.56898" lon="-0.49044">
        <ele>258</ele>
        <time>2021-08-11T17:01:25Z</time>
      </trkpt>
      <trkpt lat="48.56991" lon="-0.49068">
        <ele>267.3</ele>
        <time>2021-08-11T17:02:13Z</time>
      </trkpt>
      <trkpt lat="48.57" lon="-0.49071">
        <ele>268</ele>
        <time>2021-08-11T17:02:17Z</time>
      </trkpt>
      <trkpt lat="48.57039" lon="-0.49067">
        <ele>265.7</ele>
        <time>2021-08-11T17:02:37Z</time>
      </trkpt>
      <trkpt lat="48.57049" lon="-0.49066">
        <ele>265.1</ele>
        <time>2021-08-11T17:02:42Z</time>
      </trkpt>
      <trkpt lat="48.56978" lon="-0.48419">
        <ele>258.7</ele>
        <time>2021-08-11T17:06:19Z</time>
      </trkpt>
      <trkpt lat="48.56978" lon="-0.48413">
        <ele>258.6</ele>
        <time>2021-08-11T17:06:21Z</time>
      </trkpt>
      <trkpt lat="48.5731" lon="-0.48513">
        <ele>231.8</ele>
        <time>2021-08-11T17:09:10Z</time>
      </trkpt>
      <trkpt lat="48.57319" lon="-0.48516">
        <ele>230.8</ele>
        <time>2021-08-11T17:09:15Z</time>
      </trkpt>
      <trkpt lat="48.58083" lon="-0.48774">
        <ele>266.3</ele>
        <time>2021-08-11T17:15:47Z</time>
      </trkpt>
      <trkpt lat="48.58087" lon="-0.48776">
        <ele>266.2</ele>
        <time>2021-08-11T17:15:49Z</time>
      </trkpt>
      <trkpt lat="48.58721" lon="-0.48985">
        <ele>262.9</ele>
        <time>2021-08-11T17:21:13Z</time>
      </trkpt>
      <trkpt lat="48.5873" lon="-0.48988">
        <ele>263.2</ele>
        <time>2021-08-11T17:21:18Z</time>
      </trkpt>
      <trkpt lat="48.58737" lon="-0.49">
        <ele>263.5</ele>
        <time>2021-08-11T17:21:23Z</time>
      </trkpt>
      <trkpt lat="48.58749" lon="-0.49006">
        <ele>264</ele>
        <time>2021-08-11T17:21:30Z</time>
      </trkpt>
      <trkpt lat="48.58752" lon="-0.4899">
        <ele>264</ele>
        <time>2021-08-11T17:21:35Z</time>
      </trkpt>
      <trkpt lat="48.58755" lon="-0.48974">
        <ele>264</ele>
        <time>2021-08-11T17:21:41Z</time>
      </trkpt>
      <trkpt lat="48.58773" lon="-0.48974">
        <ele>265.1</ele>
        <time>2021-08-11T17:21:50Z</time>
      </trkpt>
      <trkpt lat="48.58783" lon="-0.48974">
        <ele>265.7</ele>
        <time>2021-08-11T17:21:55Z</time>
      </trkpt>
      <trkpt lat="48.58785" lon="-0.49021">
        <ele>265.9</ele>
        <time>2021-08-11T17:22:10Z</time>
      </trkpt>
    </trkseg>
  </trk>
</gpx>